sensor_id;sensor_type;location;lat;lon;timestamp;pressure;altitude;pressure_sealevel;temperature;humidity
20889;BME280;10604;51.976;7.594;2023-05-19T00:00:50;101898.22;;;13.15;54.89
20889;BME280;10604;51.976;7.594;2023-05-19T00:03:16;101900.16;;;13.07;54.81
20889;BME280;10604;51.976;7.594;2023-05-19T00:05:47;101890.94;;;12.84;55.43
20889;BME280;10604;51.976;7.594;2023-05-19T00:08:15;101886.56;;;12.82;55.72
20889;BME280;10604;51.976;7.594;2023-05-19T00:10:41;101893.56;;;12.84;56.32
20889;BME280;10604;51.976;7.594;2023-05-19T00:13:07;101888.28;;;12.84;56.04
20889;BME280;10604;51.976;7.594;2023-05-19T00:15:32;101888.47;;;12.75;56.10
20889;BME280;10604;51.976;7.594;2023-05-19T00:17:58;101884.91;;;12.76;56.01
20889;BME280;10604;51.976;7.594;2023-05-19T00:20:23;101886.88;;;12.65;56.65
20889;BME280;10604;51.976;7.594;2023-05-19T00:22:48;101886.06;;;12.63;56.71
20889;BME280;10604;51.976;7.594;2023-05-19T00:25:15;101888.84;;;12.57;56.58
20889;BME280;10604;51.976;7.594;2023-05-19T00:27:40;101886.22;;;12.55;57.07
20889;BME280;10604;51.976;7.594;2023-05-19T00:30:06;101886.22;;;12.55;56.85
20889;BME280;10604;51.976;7.594;2023-05-19T00:32:32;101880.66;;;12.68;56.68
20889;BME280;10604;51.976;7.594;2023-05-19T00:34:58;101879.31;;;12.48;57.30
20889;BME280;10604;51.976;7.594;2023-05-19T00:37:23;101876.63;;;12.50;57.64
20889;BME280;10604;51.976;7.594;2023-05-19T00:39:49;101880.34;;;12.40;57.75
20889;BME280;10604;51.976;7.594;2023-05-19T00:42:14;101883.47;;;12.60;57.57
20889;BME280;10604;51.976;7.594;2023-05-19T00:44:40;101876.69;;;12.47;57.26
20889;BME280;10604;51.976;7.594;2023-05-19T00:47:08;101879.97;;;12.58;57.18
20889;BME280;10604;51.976;7.594;2023-05-19T00:49:34;101877.22;;;12.64;57.22
20889;BME280;10604;51.976;7.594;2023-05-19T00:52:00;101879.22;;;12.51;57.25
20889;BME280;10604;51.976;7.594;2023-05-19T00:54:27;101875.00;;;12.43;57.36
20889;BME280;10604;51.976;7.594;2023-05-19T00:56:55;101880.34;;;12.40;57.96
20889;BME280;10604;51.976;7.594;2023-05-19T00:59:22;101880.06;;;12.55;57.87
20889;BME280;10604;51.976;7.594;2023-05-19T01:01:48;101888.19;;;12.44;57.75
20889;BME280;10604;51.976;7.594;2023-05-19T01:04:20;101885.63;;;12.40;58.07
20889;BME280;10604;51.976;7.594;2023-05-19T01:06:49;101883.75;;;12.45;57.70
20889;BME280;10604;51.976;7.594;2023-05-19T01:09:20;101884.75;;;12.39;57.81
20889;BME280;10604;51.976;7.594;2023-05-19T01:11:46;101871.50;;;12.41;57.63
20889;BME280;10604;51.976;7.594;2023-05-19T01:14:11;101874.28;;;12.35;57.76
20889;BME280;10604;51.976;7.594;2023-05-19T01:16:46;101879.50;;;12.38;57.80
20889;BME280;10604;51.976;7.594;2023-05-19T01:30:52;101886.06;;;12.15;58.37
20889;BME280;10604;51.976;7.594;2023-05-19T01:33:20;101872.16;;;12.07;59.00
20889;BME280;10604;51.976;7.594;2023-05-19T01:35:47;101873.97;;;12.02;59.18
20889;BME280;10604;51.976;7.594;2023-05-19T01:38:15;101880.22;;;12.00;59.06
20889;BME280;10604;51.976;7.594;2023-05-19T01:40:42;101875.75;;;12.02;59.10
20889;BME280;10604;51.976;7.594;2023-05-19T01:43:10;101874.19;;;11.90;59.73
20889;BME280;10604;51.976;7.594;2023-05-19T01:45:37;101875.84;;;11.97;59.44
20889;BME280;10604;51.976;7.594;2023-05-19T01:48:03;101881.00;;;12.03;59.56
20889;BME280;10604;51.976;7.594;2023-05-19T01:50:30;101875.63;;;12.09;59.66
20889;BME280;10604;51.976;7.594;2023-05-19T01:52:56;101869.78;;;11.91;59.85
20889;BME280;10604;51.976;7.594;2023-05-19T01:55:22;101870.31;;;12.09;59.16
20889;BME280;10604;51.976;7.594;2023-05-19T02:00:32;101882.25;;;11.84;60.02
20889;BME280;10604;51.976;7.594;2023-05-19T02:14:00;101884.91;;;11.81;60.04
20889;BME280;10604;51.976;7.594;2023-05-19T02:16:27;101881.25;;;11.91;60.06
20889;BME280;10604;51.976;7.594;2023-05-19T02:18:54;101880.22;;;11.98;59.97
20889;BME280;10604;51.976;7.594;2023-05-19T02:21:20;101881.09;;;12.00;59.66
20889;BME280;10604;51.976;7.594;2023-05-19T02:23:47;101874.97;;;11.97;59.73
20889;BME280;10604;51.976;7.594;2023-05-19T02:26:12;101874.00;;;12.01;59.86
20889;BME280;10604;51.976;7.594;2023-05-19T02:28:37;101868.94;;;11.87;60.26
20889;BME280;10604;51.976;7.594;2023-05-19T02:31:03;101879.63;;;11.81;60.67
20889;BME280;10604;51.976;7.594;2023-05-19T02:33:32;101874.41;;;11.78;61.05
20889;BME280;10604;51.976;7.594;2023-05-19T02:35:58;101867.22;;;11.86;60.60
20889;BME280;10604;51.976;7.594;2023-05-19T02:38:23;101872.66;;;11.77;60.34
20889;BME280;10604;51.976;7.594;2023-05-19T02:40:50;101877.88;;;11.80;60.45
20889;BME280;10604;51.976;7.594;2023-05-19T02:43:16;101879.78;;;11.72;60.87
20889;BME280;10604;51.976;7.594;2023-05-19T02:45:42;101872.78;;;11.68;61.02
20889;BME280;10604;51.976;7.594;2023-05-19T02:48:07;101862.19;;;11.68;61.24
20889;BME280;10604;51.976;7.594;2023-05-19T02:50:32;101866.69;;;11.63;61.21
20889;BME280;10604;51.976;7.594;2023-05-19T02:52:58;101869.47;;;11.54;61.91
20889;BME280;10604;51.976;7.594;2023-05-19T02:55:23;101868.78;;;11.43;61.59
20889;BME280;10604;51.976;7.594;2023-05-19T02:57:48;101867.81;;;11.50;61.58
20889;BME280;10604;51.976;7.594;2023-05-19T03:00:14;101867.91;;;11.44;61.69
20889;BME280;10604;51.976;7.594;2023-05-19T03:02:40;101867.72;;;11.53;61.83
20889;BME280;10604;51.976;7.594;2023-05-19T03:05:11;101865.97;;;11.53;61.41
20889;BME280;10604;51.976;7.594;2023-05-19T03:07:38;101871.44;;;11.43;62.28
20889;BME280;10604;51.976;7.594;2023-05-19T03:10:04;101861.28;;;11.15;62.66
20889;BME280;10604;51.976;7.594;2023-05-19T03:12:31;101863.88;;;11.17;62.44
20889;BME280;10604;51.976;7.594;2023-05-19T03:14:58;101857.00;;;11.07;63.40
20889;BME280;10604;51.976;7.594;2023-05-19T03:17:23;101856.00;;;11.15;63.15
20889;BME280;10604;51.976;7.594;2023-05-19T03:19:48;101848.69;;;11.32;62.92
20889;BME280;10604;51.976;7.594;2023-05-19T03:22:15;101850.63;;;11.21;63.55
20889;BME280;10604;51.976;7.594;2023-05-19T03:24:40;101850.56;;;11.24;63.44
20889;BME280;10604;51.976;7.594;2023-05-19T03:27:06;101852.31;;;11.25;63.07
20889;BME280;10604;51.976;7.594;2023-05-19T03:29:31;101853.97;;;11.32;62.70
20889;BME280;10604;51.976;7.594;2023-05-19T03:31:57;101848.78;;;11.26;62.86
20889;BME280;10604;51.976;7.594;2023-05-19T03:34:22;101849.63;;;11.28;63.63
20889;BME280;10604;51.976;7.594;2023-05-19T03:36:47;101854.06;;;11.26;63.11
20889;BME280;10604;51.976;7.594;2023-05-19T03:39:23;101859.31;;;11.29;63.41
20889;BME280;10604;51.976;7.594;2023-05-19T03:41:49;101852.50;;;11.13;63.64
20889;BME280;10604;51.976;7.594;2023-05-19T03:44:14;101859.38;;;11.23;63.74
20889;BME280;10604;51.976;7.594;2023-05-19T03:46:40;101861.00;;;11.33;63.22
20889;BME280;10604;51.976;7.594;2023-05-19T03:49:05;101860.28;;;11.22;63.54
20889;BME280;10604;51.976;7.594;2023-05-19T03:51:30;101863.81;;;11.21;63.61
20889;BME280;10604;51.976;7.594;2023-05-19T03:53:56;101864.66;;;11.23;63.86
20889;BME280;10604;51.976;7.594;2023-05-19T03:56:21;101868.06;;;11.31;63.58
20889;BME280;10604;51.976;7.594;2023-05-19T03:58:49;101863.00;;;11.16;64.00
20889;BME280;10604;51.976;7.594;2023-05-19T04:01:14;101861.19;;;11.21;63.56
20889;BME280;10604;51.976;7.594;2023-05-19T04:03:39;101862.94;;;11.22;63.47
20889;BME280;10604;51.976;7.594;2023-05-19T04:06:05;101861.19;;;11.20;63.41
20889;BME280;10604;51.976;7.594;2023-05-19T04:08:31;101861.31;;;11.12;64.25
20889;BME280;10604;51.976;7.594;2023-05-19T04:10:56;101865.59;;;11.19;63.92
20889;BME280;10604;51.976;7.594;2023-05-19T04:13:22;101868.47;;;11.04;64.38
20889;BME280;10604;51.976;7.594;2023-05-19T04:15:47;101871.06;;;11.07;64.50
20889;BME280;10604;51.976;7.594;2023-05-19T04:18:13;101877.25;;;11.06;64.72
20889;BME280;10604;51.976;7.594;2023-05-19T04:20:38;101873.50;;;11.22;64.72
20889;BME280;10604;51.976;7.594;2023-05-19T04:23:03;101880.50;;;11.23;64.91
20889;BME280;10604;51.976;7.594;2023-05-19T04:25:29;101875.50;;;11.02;64.90
20889;BME280;10604;51.976;7.594;2023-05-19T04:28:00;101882.44;;;11.12;65.77
20889;BME280;10604;51.976;7.594;2023-05-19T04:30:27;101878.84;;;11.16;65.36
20889;BME280;10604;51.976;7.594;2023-05-19T04:32:53;101882.34;;;11.18;64.89
20889;BME280;10604;51.976;7.594;2023-05-19T04:35:19;101874.19;;;11.33;65.11
20889;BME280;10604;51.976;7.594;2023-05-19T04:37:45;101880.16;;;11.48;64.59
20889;BME280;10604;51.976;7.594;2023-05-19T04:40:14;101883.69;;;11.47;64.33
20889;BME280;10604;51.976;7.594;2023-05-19T04:42:40;101881.03;;;11.47;65.03
20889;BME280;10604;51.976;7.594;2023-05-19T04:45:07;101879.72;;;11.78;63.84
20889;BME280;10604;51.976;7.594;2023-05-19T04:47:34;101885.75;;;11.86;63.96
20889;BME280;10604;51.976;7.594;2023-05-19T04:50:05;101879.16;;;12.08;64.28
20889;BME280;10604;51.976;7.594;2023-05-19T04:52:31;101880.91;;;12.09;63.60
20889;BME280;10604;51.976;7.594;2023-05-19T04:54:57;101888.81;;;12.11;63.87
20889;BME280;10604;51.976;7.594;2023-05-19T04:57:22;101877.03;;;12.29;63.59
20889;BME280;10604;51.976;7.594;2023-05-19T04:59:48;101881.00;;;12.51;62.23
20889;BME280;10604;51.976;7.594;2023-05-19T05:02:19;101884.63;;;12.45;63.46
20889;BME280;10604;51.976;7.594;2023-05-19T05:04:45;101883.28;;;12.69;61.91
20889;BME280;10604;51.976;7.594;2023-05-19T05:07:10;101876.31;;;12.65;61.18
20889;BME280;10604;51.976;7.594;2023-05-19T05:09:36;101871.66;;;12.78;61.00
20889;BME280;10604;51.976;7.594;2023-05-19T05:12:02;101872.13;;;12.97;60.40
20889;BME280;10604;51.976;7.594;2023-05-19T05:14:28;101882.13;;;13.24;59.74
20889;BME280;10604;51.976;7.594;2023-05-19T05:16:53;101878.88;;;13.10;60.01
20889;BME280;10604;51.976;7.594;2023-05-19T05:19:19;101878.38;;;13.34;59.18
20889;BME280;10604;51.976;7.594;2023-05-19T05:21:46;101879.63;;;13.18;59.52
20889;BME280;10604;51.976;7.594;2023-05-19T05:24:12;101878.03;;;13.49;58.22
20889;BME280;10604;51.976;7.594;2023-05-19T05:26:37;101871.81;;;13.86;57.40
20889;BME280;10604;51.976;7.594;2023-05-19T05:29:03;101879.31;;;14.04;57.60
20889;BME280;10604;51.976;7.594;2023-05-19T05:31:28;101878.00;;;14.20;55.69
20889;BME280;10604;51.976;7.594;2023-05-19T05:33:54;101882.34;;;14.23;56.13
20889;BME280;10604;51.976;7.594;2023-05-19T05:36:19;101876.09;;;14.25;55.94
20889;BME280;10604;51.976;7.594;2023-05-19T05:38:45;101870.22;;;14.46;56.13
20889;BME280;10604;51.976;7.594;2023-05-19T05:41:14;101878.69;;;14.61;55.86
20889;BME280;10604;51.976;7.594;2023-05-19T05:43:39;101872.81;;;14.79;54.75
20889;BME280;10604;51.976;7.594;2023-05-19T05:46:05;101877.94;;;14.85;54.05
20889;BME280;10604;51.976;7.594;2023-05-19T05:48:30;101869.22;;;15.11;53.03
20889;BME280;10604;51.976;7.594;2023-05-19T05:50:56;101871.72;;;15.15;54.04
20889;BME280;10604;51.976;7.594;2023-05-19T05:53:24;101871.72;;;15.15;53.47
20889;BME280;10604;51.976;7.594;2023-05-19T05:55:51;101867.78;;;15.28;52.77
20889;BME280;10604;51.976;7.594;2023-05-19T05:58:17;101875.03;;;15.79;52.55
20889;BME280;10604;51.976;7.594;2023-05-19T06:00:43;101874.28;;;15.76;51.67
20889;BME280;10604;51.976;7.594;2023-05-19T06:03:08;101879.22;;;15.60;52.33
20889;BME280;10604;51.976;7.594;2023-05-19T06:05:35;101873.81;;;15.63;52.12
20889;BME280;10604;51.976;7.594;2023-05-19T06:08:00;101876.69;;;15.83;51.03
20889;BME280;10604;51.976;7.594;2023-05-19T06:10:27;101871.59;;;16.02;51.60
20889;BME280;10604;51.976;7.594;2023-05-19T06:12:52;101877.66;;;16.32;50.61
20889;BME280;10604;51.976;7.594;2023-05-19T06:15:24;101875.06;;;16.29;49.62
20889;BME280;10604;51.976;7.594;2023-05-19T06:17:59;101870.06;;;16.44;49.39
20889;BME280;10604;51.976;7.594;2023-05-19T06:20:24;101866.38;;;16.49;49.06
20889;BME280;10604;51.976;7.594;2023-05-19T06:22:50;101864.59;;;16.74;49.04
20889;BME280;10604;51.976;7.594;2023-05-19T06:25:21;101865.22;;;17.04;47.87
20889;BME280;10604;51.976;7.594;2023-05-19T06:27:49;101866.81;;;17.08;48.87
20889;BME280;10604;51.976;7.594;2023-05-19T06:30:16;101876.88;;;17.46;48.05
20889;BME280;10604;51.976;7.594;2023-05-19T06:32:41;101869.88;;;17.66;47.48
20889;BME280;10604;51.976;7.594;2023-05-19T06:35:07;101867.22;;;17.86;47.03
20889;BME280;10604;51.976;7.594;2023-05-19T06:37:32;101864.31;;;18.12;46.32
20889;BME280;10604;51.976;7.594;2023-05-19T06:39:58;101868.28;;;18.24;46.55
20889;BME280;10604;51.976;7.594;2023-05-19T06:42:23;101867.06;;;18.11;47.34
20889;BME280;10604;51.976;7.594;2023-05-19T06:44:52;101868.47;;;18.39;45.79
20889;BME280;10604;51.976;7.594;2023-05-19T06:47:18;101862.97;;;18.43;45.33
20889;BME280;10604;51.976;7.594;2023-05-19T06:49:45;101862.94;;;18.83;45.70
20889;BME280;10604;51.976;7.594;2023-05-19T06:52:15;101870.00;;;18.65;45.70
20889;BME280;10604;51.976;7.594;2023-05-19T06:54:43;101870.59;;;18.72;44.82
20889;BME280;10604;51.976;7.594;2023-05-19T06:57:08;101870.69;;;18.89;44.51
20889;BME280;10604;51.976;7.594;2023-05-19T06:59:34;101872.47;;;19.45;43.83
20889;BME280;10604;51.976;7.594;2023-05-19T07:02:02;101868.00;;;19.45;44.00
20889;BME280;10604;51.976;7.594;2023-05-19T07:04:28;101866.44;;;19.04;42.85
20889;BME280;10604;51.976;7.594;2023-05-19T07:06:54;101871.28;;;19.69;43.09
20889;BME280;10604;51.976;7.594;2023-05-19T07:09:22;101874.00;;;19.86;43.08
20889;BME280;10604;51.976;7.594;2023-05-19T07:11:49;101870.38;;;19.87;41.95
20889;BME280;10604;51.976;7.594;2023-05-19T07:14:17;101872.88;;;19.73;43.51
20889;BME280;10604;51.976;7.594;2023-05-19T07:16:44;101862.19;;;20.08;41.65
20889;BME280;10604;51.976;7.594;2023-05-19T07:19:09;101860.00;;;20.16;42.93
20889;BME280;10604;51.976;7.594;2023-05-19T07:21:34;101860.75;;;20.52;40.49
20889;BME280;10604;51.976;7.594;2023-05-19T07:24:07;101861.22;;;20.26;41.12
20889;BME280;10604;51.976;7.594;2023-05-19T07:26:32;101857.78;;;20.90;41.14
20889;BME280;10604;51.976;7.594;2023-05-19T07:28:57;101854.50;;;20.85;40.59
20889;BME280;10604;51.976;7.594;2023-05-19T07:31:23;101861.78;;;21.77;40.25
20889;BME280;10604;51.976;7.594;2023-05-19T07:33:48;101860.59;;;22.12;40.76
20889;BME280;10604;51.976;7.594;2023-05-19T07:36:14;101853.50;;;22.25;39.10
20889;BME280;10604;51.976;7.594;2023-05-19T07:38:39;101854.69;;;22.36;38.34
20889;BME280;10604;51.976;7.594;2023-05-19T07:41:05;101858.41;;;22.19;38.72
20889;BME280;10604;51.976;7.594;2023-05-19T07:43:31;101865.25;;;22.39;37.86
20889;BME280;10604;51.976;7.594;2023-05-19T07:45:57;101850.06;;;22.23;38.33
20889;BME280;10604;51.976;7.594;2023-05-19T07:48:22;101846.09;;;22.87;39.55
20889;BME280;10604;51.976;7.594;2023-05-19T07:50:54;101851.22;;;22.34;37.24
20889;BME280;10604;51.976;7.594;2023-05-19T07:53:20;101840.47;;;22.62;36.93
20889;BME280;10604;51.976;7.594;2023-05-19T07:55:47;101848.44;;;23.20;36.85
20889;BME280;10604;51.976;7.594;2023-05-19T07:58:12;101845.44;;;23.25;36.92
20889;BME280;10604;51.976;7.594;2023-05-19T08:00:38;101842.72;;;23.25;36.06
20889;BME280;10604;51.976;7.594;2023-05-19T08:03:05;101842.19;;;23.20;36.16
20889;BME280;10604;51.976;7.594;2023-05-19T08:05:33;101840.78;;;23.41;36.01
20889;BME280;10604;51.976;7.594;2023-05-19T08:07:59;101834.88;;;23.22;36.90
20889;BME280;10604;51.976;7.594;2023-05-19T08:10:24;101836.84;;;23.32;36.70
20889;BME280;10604;51.976;7.594;2023-05-19T08:12:49;101831.16;;;23.51;36.08
20889;BME280;10604;51.976;7.594;2023-05-19T08:15:15;101837.31;;;23.93;35.12
20889;BME280;10604;51.976;7.594;2023-05-19T08:17:40;101840.28;;;23.75;34.38
20889;BME280;10604;51.976;7.594;2023-05-19T08:20:06;101832.06;;;23.64;34.26
20889;BME280;10604;51.976;7.594;2023-05-19T08:22:33;101824.88;;;24.42;34.22
20889;BME280;10604;51.976;7.594;2023-05-19T08:24:59;101825.94;;;24.52;35.49
20889;BME280;10604;51.976;7.594;2023-05-19T08:27:25;101823.34;;;24.64;34.00
20889;BME280;10604;51.976;7.594;2023-05-19T08:29:51;101830.09;;;25.07;31.60
20889;BME280;10604;51.976;7.594;2023-05-19T08:32:16;101814.94;;;24.30;32.77
20889;BME280;10604;51.976;7.594;2023-05-19T08:34:42;101811.94;;;24.22;33.63
20889;BME280;10604;51.976;7.594;2023-05-19T08:37:07;101810.81;;;24.37;31.96
20889;BME280;10604;51.976;7.594;2023-05-19T08:39:33;101813.31;;;23.75;33.91
20889;BME280;10604;51.976;7.594;2023-05-19T08:41:59;101806.25;;;23.33;32.81
20889;BME280;10604;51.976;7.594;2023-05-19T08:44:25;101802.75;;;23.19;33.49
20889;BME280;10604;51.976;7.594;2023-05-19T08:46:53;101804.41;;;23.48;33.83
20889;BME280;10604;51.976;7.594;2023-05-19T08:49:22;101794.84;;;23.30;33.41
20889;BME280;10604;51.976;7.594;2023-05-19T08:54:52;101791.75;;;23.63;32.85
20889;BME280;10604;51.976;7.594;2023-05-19T08:57:19;101791.94;;;24.37;32.41
20889;BME280;10604;51.976;7.594;2023-05-19T08:59:46;101784.94;;;24.47;32.04
20889;BME280;10604;51.976;7.594;2023-05-19T09:02:13;101790.94;;;25.36;31.19
20889;BME280;10604;51.976;7.594;2023-05-19T09:04:39;101787.38;;;26.30;29.67
20889;BME280;10604;51.976;7.594;2023-05-19T09:07:04;101786.88;;;26.80;28.68
20889;BME280;10604;51.976;7.594;2023-05-19T09:09:30;101771.84;;;26.87;29.40
20889;BME280;10604;51.976;7.594;2023-05-19T09:11:55;101777.31;;;26.43;30.01
20889;BME280;10604;51.976;7.594;2023-05-19T09:14:21;101790.28;;;24.73;30.92
20889;BME280;10604;51.976;7.594;2023-05-19T09:16:53;101781.81;;;24.28;33.37
20889;BME280;10604;51.976;7.594;2023-05-19T09:19:18;101778.88;;;24.56;31.83
20889;BME280;10604;51.976;7.594;2023-05-19T09:21:56;101783.44;;;26.34;29.74
20889;BME280;10604;51.976;7.594;2023-05-19T09:24:24;101774.34;;;26.57;28.25
20889;BME280;10604;51.976;7.594;2023-05-19T09:26:50;101775.66;;;25.72;29.83
20889;BME280;10604;51.976;7.594;2023-05-19T09:29:16;101770.16;;;25.50;29.76
20889;BME280;10604;51.976;7.594;2023-05-19T09:31:48;101772.44;;;25.67;30.39
20889;BME280;10604;51.976;7.594;2023-05-19T09:34:17;101768.00;;;26.12;29.06
20889;BME280;10604;51.976;7.594;2023-05-19T09:36:43;101774.56;;;25.74;29.09
20889;BME280;10604;51.976;7.594;2023-05-19T09:39:16;101761.66;;;25.19;30.52
20889;BME280;10604;51.976;7.594;2023-05-19T09:41:42;101758.50;;;25.95;29.22
20889;BME280;10604;51.976;7.594;2023-05-19T09:44:34;101761.97;;;26.08;29.36
20889;BME280;10604;51.976;7.594;2023-05-19T09:46:59;101754.06;;;25.94;29.89
20889;BME280;10604;51.976;7.594;2023-05-19T09:49:26;101743.47;;;25.80;30.15
20889;BME280;10604;51.976;7.594;2023-05-19T09:52:02;101750.47;;;26.40;29.27
20889;BME280;10604;51.976;7.594;2023-05-19T09:54:28;101751.25;;;27.71;28.06
20889;BME280;10604;51.976;7.594;2023-05-19T09:57:00;101756.56;;;27.73;27.01
20889;BME280;10604;51.976;7.594;2023-05-19T09:59:27;101749.25;;;27.63;27.16
20889;BME280;10604;51.976;7.594;2023-05-19T10:01:54;101753.91;;;28.03;26.51
20889;BME280;10604;51.976;7.594;2023-05-19T10:04:22;101752.66;;;28.68;25.98
20889;BME280;10604;51.976;7.594;2023-05-19T10:06:49;101745.59;;;28.86;24.91
20889;BME280;10604;51.976;7.594;2023-05-19T10:09:22;101741.75;;;28.49;26.72
20889;BME280;10604;51.976;7.594;2023-05-19T10:11:53;101736.06;;;27.80;27.87
20889;BME280;10604;51.976;7.594;2023-05-19T10:14:23;101735.16;;;28.51;27.12
20889;BME280;10604;51.976;7.594;2023-05-19T10:16:50;101733.88;;;28.15;27.18
20889;BME280;10604;51.976;7.594;2023-05-19T10:19:24;101734.56;;;27.34;26.94
20889;BME280;10604;51.976;7.594;2023-05-19T10:21:50;101731.94;;;27.12;27.44
20889;BME280;10604;51.976;7.594;2023-05-19T10:24:19;101730.66;;;28.10;26.03
20889;BME280;10604;51.976;7.594;2023-05-19T10:26:57;101730.50;;;27.60;27.31
20889;BME280;10604;51.976;7.594;2023-05-19T10:29:31;101735.34;;;28.29;27.24
20889;BME280;10604;51.976;7.594;2023-05-19T10:32:04;101723.41;;;27.90;26.24
20889;BME280;10604;51.976;7.594;2023-05-19T10:34:53;101721.09;;;28.27;26.18
20889;BME280;10604;51.976;7.594;2023-05-19T10:40:19;101718.13;;;28.79;26.43
20889;BME280;10604;51.976;7.594;2023-05-19T10:45:21;101712.03;;;30.20;25.51
20889;BME280;10604;51.976;7.594;2023-05-19T10:47:51;101700.13;;;30.58;24.65
20889;BME280;10604;51.976;7.594;2023-05-19T10:50:20;101708.78;;;30.71;23.34
20889;BME280;10604;51.976;7.594;2023-05-19T10:52:52;101704.47;;;30.51;23.17
20889;BME280;10604;51.976;7.594;2023-05-19T10:55:46;101709.91;;;30.51;24.47
20889;BME280;10604;51.976;7.594;2023-05-19T10:58:12;101711.38;;;30.36;23.14
20889;BME280;10604;51.976;7.594;2023-05-19T11:00:41;101709.97;;;29.95;23.57
20889;BME280;10604;51.976;7.594;2023-05-19T11:03:16;101706.19;;;30.52;24.00
20889;BME280;10604;51.976;7.594;2023-05-19T11:05:50;101705.78;;;30.74;23.43
20889;BME280;10604;51.976;7.594;2023-05-19T11:08:31;101704.22;;;30.35;24.10
20889;BME280;10604;51.976;7.594;2023-05-19T11:11:11;101703.31;;;30.44;23.11
20889;BME280;10604;51.976;7.594;2023-05-19T11:13:42;101707.28;;;29.56;24.90
20889;BME280;10604;51.976;7.594;2023-05-19T11:16:10;101713.28;;;29.02;25.13
20889;BME280;10604;51.976;7.594;2023-05-19T11:18:36;101705.28;;;29.49;25.03
20889;BME280;10604;51.976;7.594;2023-05-19T11:21:02;101718.16;;;29.08;25.69
20889;BME280;10604;51.976;7.594;2023-05-19T11:23:32;101709.34;;;28.26;25.96
20889;BME280;10604;51.976;7.594;2023-05-19T11:26:00;101713.38;;;28.32;26.86
20889;BME280;10604;51.976;7.594;2023-05-19T11:28:29;101706.06;;;28.02;25.89
20889;BME280;10604;51.976;7.594;2023-05-19T11:30:57;101700.75;;;28.21;25.42
20889;BME280;10604;51.976;7.594;2023-05-19T11:33:30;101693.22;;;29.80;24.78
20889;BME280;10604;51.976;7.594;2023-05-19T11:35:56;101698.84;;;30.80;24.66
20889;BME280;10604;51.976;7.594;2023-05-19T11:38:23;101694.03;;;30.37;25.59
20889;BME280;10604;51.976;7.594;2023-05-19T11:40:52;101693.38;;;31.25;23.46
20889;BME280;10604;51.976;7.594;2023-05-19T11:43:17;101685.81;;;31.80;23.60
20889;BME280;10604;51.976;7.594;2023-05-19T11:45:43;101687.94;;;32.20;21.36
20889;BME280;10604;51.976;7.594;2023-05-19T11:48:12;101679.63;;;32.72;22.45
20889;BME280;10604;51.976;7.594;2023-05-19T11:50:40;101688.09;;;31.49;22.65
20889;BME280;10604;51.976;7.594;2023-05-19T11:53:11;101675.56;;;30.41;23.83
20889;BME280;10604;51.976;7.594;2023-05-19T11:55:44;101681.47;;;29.89;24.68
20889;BME280;10604;51.976;7.594;2023-05-19T11:58:10;101674.78;;;30.76;23.68
20889;BME280;10604;51.976;7.594;2023-05-19T12:00:38;101684.84;;;31.46;23.88
20889;BME280;10604;51.976;7.594;2023-05-19T12:03:11;101677.91;;;32.29;23.71
20889;BME280;10604;51.976;7.594;2023-05-19T12:05:41;101679.06;;;32.26;22.16
20889;BME280;10604;51.976;7.594;2023-05-19T12:08:08;101665.31;;;30.97;23.20
20889;BME280;10604;51.976;7.594;2023-05-19T12:10:34;101672.94;;;31.29;23.72
20889;BME280;10604;51.976;7.594;2023-05-19T12:13:00;101669.28;;;31.21;24.90
20889;BME280;10604;51.976;7.594;2023-05-19T12:15:27;101668.94;;;29.31;25.44
20889;BME280;10604;51.976;7.594;2023-05-19T12:20:22;101678.91;;;28.72;27.61
20889;BME280;10604;51.976;7.594;2023-05-19T12:22:47;101674.25;;;28.34;27.15
20889;BME280;10604;51.976;7.594;2023-05-19T12:25:14;101662.28;;;29.81;25.45
20889;BME280;10604;51.976;7.594;2023-05-19T12:27:43;101663.59;;;31.14;24.56
20889;BME280;10604;51.976;7.594;2023-05-19T12:30:10;101658.38;;;31.03;23.92
20889;BME280;10604;51.976;7.594;2023-05-19T12:32:36;101651.56;;;31.42;23.26
20889;BME280;10604;51.976;7.594;2023-05-19T12:35:03;101662.00;;;30.94;24.61
20889;BME280;10604;51.976;7.594;2023-05-19T12:37:29;101662.81;;;31.39;23.26
20889;BME280;10604;51.976;7.594;2023-05-19T12:39:56;101655.22;;;31.69;23.46
20889;BME280;10604;51.976;7.594;2023-05-19T12:42:22;101654.69;;;31.99;23.73
20889;BME280;10604;51.976;7.594;2023-05-19T12:44:49;101658.16;;;32.09;22.54
20889;BME280;10604;51.976;7.594;2023-05-19T12:47:17;101654.41;;;32.44;22.94
20889;BME280;10604;51.976;7.594;2023-05-19T12:50:03;101646.88;;;33.37;23.58
20889;BME280;10604;51.976;7.594;2023-05-19T12:52:30;101645.47;;;32.84;22.68
20889;BME280;10604;51.976;7.594;2023-05-19T12:55:03;101651.94;;;30.59;24.01
20889;BME280;10604;51.976;7.594;2023-05-19T12:57:33;101654.28;;;30.54;24.57
20889;BME280;10604;51.976;7.594;2023-05-19T13:03:15;101643.91;;;30.57;24.60
20889;BME280;10604;51.976;7.594;2023-05-19T13:05:41;101651.50;;;29.24;25.69
20889;BME280;10604;51.976;7.594;2023-05-19T13:08:12;101640.81;;;29.78;24.94
20889;BME280;10604;51.976;7.594;2023-05-19T13:10:40;101642.63;;;30.61;24.83
20889;BME280;10604;51.976;7.594;2023-05-19T13:13:07;101629.56;;;30.83;24.62
20889;BME280;10604;51.976;7.594;2023-05-19T13:15:33;101630.16;;;30.49;23.79
20889;BME280;10604;51.976;7.594;2023-05-19T13:18:01;101635.53;;;31.04;24.39
20889;BME280;10604;51.976;7.594;2023-05-19T13:20:27;101616.38;;;30.96;24.24
20889;BME280;10604;51.976;7.594;2023-05-19T13:22:53;101621.31;;;29.92;25.30
20889;BME280;10604;51.976;7.594;2023-05-19T13:25:19;101628.31;;;28.81;25.67
20889;BME280;10604;51.976;7.594;2023-05-19T13:27:46;101631.47;;;27.45;27.09
20889;BME280;10604;51.976;7.594;2023-05-19T13:30:12;101621.81;;;28.43;26.28